sensor_id;sensor_type;location;lat;lon;timestamp;pressure;altitude;pressure_sealevel;temperature;humidity
6200;BME280;3133;43.214;27.906;2023-05-21T00:02:13;100391.66;;;17.97;100.00
6200;BME280;3133;43.214;27.906;2023-05-21T00:04:42;100397.75;;;17.99;100.00
6200;BME280;3133;43.214;27.906;2023-05-21T00:07:16;100353.41;;;17.83;100.00
6200;BME280;3133;43.214;27.906;2023-05-21T00:09:44;100327.91;;;17.55;100.00
6200;BME280;3133;43.214;27.906;2023-05-21T00:12:11;100340.72;;;17.38;100.00
6200;BME280;3133;43.214;27.906;2023-05-21T00:14:38;100349.47;;;17.40;100.00
6200;BME280;3133;43.214;27.906;2023-05-21T00:17:05;100281.50;;;16.93;100.00
6200;BME280;3133;43.214;27.906;2023-05-21T00:19:32;100385.19;;;17.50;100.00
6200;BME280;3133;43.214;27.906;2023-05-21T00:21:59;100356.88;;;17.28;100.00
6200;BME280;3133;43.214;27.906;2023-05-21T00:24:28;100298.25;;;16.91;100.00
6200;BME280;3133;43.214;27.906;2023-05-21T00:26:56;100371.94;;;17.53;100.00
6200;BME280;3133;43.214;27.906;2023-05-21T00:29:23;100333.78;;;17.36;100.00
6200;BME280;3133;43.214;27.906;2023-05-21T00:31:51;100369.91;;;17.61;100.00
6200;BME280;3133;43.214;27.906;2023-05-21T00:34:18;100380.59;;;17.57;100.00
6200;BME280;3133;43.214;27.906;2023-05-21T00:36:45;100379.47;;;17.66;100.00
6200;BME280;3133;43.214;27.906;2023-05-21T00:39:12;100367.22;;;17.63;100.00
6200;BME280;3133;43.214;27.906;2023-05-21T00:41:39;100299.16;;;17.19;100.00
6200;BME280;3133;43.214;27.906;2023-05-21T00:44:08;100378.03;;;17.55;100.00
6200;BME280;3133;43.214;27.906;2023-05-21T00:46:40;100372.81;;;17.52;100.00
6200;BME280;3133;43.214;27.906;2023-05-21T00:49:08;100268.47;;;16.88;100.00
6200;BME280;3133;43.214;27.906;2023-05-21T00:51:35;100378.91;;;17.56;100.00
6200;BME280;3133;43.214;27.906;2023-05-21T00:54:02;100390.13;;;17.63;100.00
6200;BME280;3133;43.214;27.906;2023-05-21T00:56:30;100348.38;;;17.46;100.00
6200;BME280;3133;43.214;27.906;2023-05-21T00:58:57;100374.03;;;17.70;100.00
6200;BME280;3133;43.214;27.906;2023-05-21T01:01:25;100387.22;;;17.70;100.00
6200;BME280;3133;43.214;27.906;2023-05-21T01:04:00;100329.84;;;17.49;100.00
6200;BME280;3133;43.214;27.906;2023-05-21T01:06:27;100370.13;;;17.55;100.00
6200;BME280;3133;43.214;27.906;2023-05-21T01:08:54;100238.31;;;16.69;100.00
6200;BME280;3133;43.214;27.906;2023-05-21T01:11:32;100361.88;;;17.37;100.00
6200;BME280;3133;43.214;27.906;2023-05-21T01:14:03;100275.38;;;16.93;100.00
6200;BME280;3133;43.214;27.906;2023-05-21T01:16:36;100325.72;;;17.13;100.00
6200;BME280;3133;43.214;27.906;2023-05-21T01:19:04;100297.81;;;17.06;100.00
6200;BME280;3133;43.214;27.906;2023-05-21T01:21:34;100316.75;;;17.18;100.00
6200;BME280;3133;43.214;27.906;2023-05-21T01:24:04;100352.81;;;17.45;100.00
6200;BME280;3133;43.214;27.906;2023-05-21T01:26:32;100330.47;;;17.29;100.00
6200;BME280;3133;43.214;27.906;2023-05-21T01:29:03;100315.38;;;17.05;100.00
6200;BME280;3133;43.214;27.906;2023-05-21T01:31:37;100311.78;;;17.09;100.00
6200;BME280;3133;43.214;27.906;2023-05-21T01:34:10;100320.50;;;17.11;100.00
6200;BME280;3133;43.214;27.906;2023-05-21T01:36:43;100343.75;;;17.26;100.00
6200;BME280;3133;43.214;27.906;2023-05-21T01:39:16;100211.91;;;16.42;100.00
6200;BME280;3133;43.214;27.906;2023-05-21T01:41:46;100139.34;;;16.02;100.00
6200;BME280;3133;43.214;27.906;2023-05-21T01:44:16;100264.38;;;16.78;100.00
6200;BME280;3133;43.214;27.906;2023-05-21T01:46:44;100331.41;;;17.27;100.00
6200;BME280;3133;43.214;27.906;2023-05-21T01:49:12;100328.06;;;17.22;100.00
6200;BME280;3133;43.214;27.906;2023-05-21T01:51:40;100326.19;;;17.25;100.00
6200;BME280;3133;43.214;27.906;2023-05-21T01:54:07;100273.19;;;17.07;100.00
6200;BME280;3133;43.214;27.906;2023-05-21T01:56:36;100320.19;;;17.20;100.00
6200;BME280;3133;43.214;27.906;2023-05-21T01:59:04;100236.16;;;16.82;100.00
6200;BME280;3133;43.214;27.906;2023-05-21T02:01:49;100031.72;;;15.66;100.00
6200;BME280;3133;43.214;27.906;2023-05-21T02:07:54;100280.09;;;17.11;100.00
6200;BME280;3133;43.214;27.906;2023-05-21T02:10:21;100316.66;;;17.21;100.00
6200;BME280;3133;43.214;27.906;2023-05-21T02:12:49;100307.00;;;17.20;100.00
6200;BME280;3133;43.214;27.906;2023-05-21T02:15:17;100311.84;;;17.06;100.00
6200;BME280;3133;43.214;27.906;2023-05-21T02:17:44;100317.13;;;17.06;100.00
6200;BME280;3133;43.214;27.906;2023-05-21T02:20:12;100319.31;;;16.92;100.00
6200;BME280;3133;43.214;27.906;2023-05-21T02:22:41;100252.94;;;16.49;100.00
6200;BME280;3133;43.214;27.906;2023-05-21T02:25:09;100307.09;;;16.88;100.00
6200;BME280;3133;43.214;27.906;2023-05-21T02:27:37;100312.38;;;16.88;100.00
6200;BME280;3133;43.214;27.906;2023-05-21T02:30:08;100303.56;;;16.89;100.00
6200;BME280;3133;43.214;27.906;2023-05-21T02:32:35;100306.25;;;16.88;100.00
6200;BME280;3133;43.214;27.906;2023-05-21T02:35:04;100302.75;;;16.87;100.00
6200;BME280;3133;43.214;27.906;2023-05-21T02:37:31;100311.56;;;16.86;100.00
6200;BME280;3133;43.214;27.906;2023-05-21T02:39:59;100261.25;;;16.66;100.00
6200;BME280;3133;43.214;27.906;2023-05-21T02:42:26;100250.22;;;16.53;100.00
6200;BME280;3133;43.214;27.906;2023-05-21T02:44:53;100268.22;;;16.67;100.00
6200;BME280;3133;43.214;27.906;2023-05-21T02:47:21;100271.84;;;16.63;100.00
6200;BME280;3133;43.214;27.906;2023-05-21T02:49:50;100306.66;;;16.74;100.00
6200;BME280;3133;43.214;27.906;2023-05-21T02:52:18;100313.75;;;16.72;100.00
6200;BME280;3133;43.214;27.906;2023-05-21T02:54:56;100204.00;;;16.11;100.00
6200;BME280;3133;43.214;27.906;2023-05-21T02:57:23;100028.69;;;15.16;100.00
6200;BME280;3133;43.214;27.906;2023-05-21T02:59:50;100208.13;;;16.21;100.00
6200;BME280;3133;43.214;27.906;2023-05-21T03:02:17;100094.97;;;15.60;100.00
6200;BME280;3133;43.214;27.906;2023-05-21T03:04:46;100265.66;;;16.65;100.00
6200;BME280;3133;43.214;27.906;2023-05-21T03:07:13;100206.84;;;16.34;100.00
6200;BME280;3133;43.214;27.906;2023-05-21T03:09:42;100300.19;;;16.84;100.00
6200;BME280;3133;43.214;27.906;2023-05-21T03:12:09;100281.25;;;16.71;100.00
6200;BME280;3133;43.214;27.906;2023-05-21T03:14:36;100298.38;;;16.88;100.00
6200;BME280;3133;43.214;27.906;2023-05-21T03:17:04;100272.59;;;16.68;100.00
6200;BME280;3133;43.214;27.906;2023-05-21T03:19:32;100249.16;;;16.59;100.00
6200;BME280;3133;43.214;27.906;2023-05-21T03:22:12;100242.03;;;16.62;100.00
6200;BME280;3133;43.214;27.906;2023-05-21T03:24:39;100267.78;;;16.82;100.00
6200;BME280;3133;43.214;27.906;2023-05-21T03:27:07;100297.91;;;17.03;100.00
6200;BME280;3133;43.214;27.906;2023-05-21T03:29:34;100289.00;;;17.07;100.00
6200;BME280;3133;43.214;27.906;2023-05-21T03:32:02;100296.56;;;17.17;100.00
6200;BME280;3133;43.214;27.906;2023-05-21T03:34:29;100234.47;;;16.81;100.00
6200;BME280;3133;43.214;27.906;2023-05-21T03:36:58;100235.63;;;17.00;100.00
6200;BME280;3133;43.214;27.906;2023-05-21T03:39:26;100300.91;;;17.47;100.00
6200;BME280;3133;43.214;27.906;2023-05-21T03:41:53;100296.88;;;17.63;100.00
6200;BME280;3133;43.214;27.906;2023-05-21T03:44:20;100307.06;;;17.76;100.00
6200;BME280;3133;43.214;27.906;2023-05-21T03:46:47;100296.50;;;17.76;100.00
6200;BME280;3133;43.214;27.906;2023-05-21T03:49:14;100283.84;;;17.85;100.00
6200;BME280;3133;43.214;27.906;2023-05-21T03:51:41;100260.53;;;17.73;100.00
6200;BME280;3133;43.214;27.906;2023-05-21T03:54:07;100316.47;;;18.09;100.00
6200;BME280;3133;43.214;27.906;2023-05-21T03:56:36;100280.03;;;17.94;100.00
6200;BME280;3133;43.214;27.906;2023-05-21T03:59:02;100319.59;;;18.20;100.00
6200;BME280;3133;43.214;27.906;2023-05-21T04:01:29;100201.25;;;17.58;100.00
6200;BME280;3133;43.214;27.906;2023-05-21T04:03:57;100322.59;;;18.35;100.00
6200;BME280;3133;43.214;27.906;2023-05-21T04:06:24;100296.19;;;18.35;100.00
6200;BME280;3133;43.214;27.906;2023-05-21T04:08:50;100262.41;;;18.20;100.00
6200;BME280;3133;43.214;27.906;2023-05-21T04:11:17;100310.25;;;18.61;100.00
6200;BME280;3133;43.214;27.906;2023-05-21T04:13:46;100314.34;;;18.69;100.00
6200;BME280;3133;43.214;27.906;2023-05-21T04:16:13;100308.16;;;18.70;100.00
6200;BME280;3133;43.214;27.906;2023-05-21T04:18:43;100311.31;;;18.80;100.00
6200;BME280;3133;43.214;27.906;2023-05-21T04:21:11;100304.75;;;18.90;100.00
6200;BME280;3133;43.214;27.906;2023-05-21T04:23:37;100260.47;;;18.73;100.00
6200;BME280;3133;43.214;27.906;2023-05-21T04:26:04;100311.13;;;19.07;100.00
6200;BME280;3133;43.214;27.906;2023-05-21T04:28:32;100260.94;;;18.84;100.00
6200;BME280;3133;43.214;27.906;2023-05-21T04:31:01;100312.94;;;19.29;100.00
6200;BME280;3133;43.214;27.906;2023-05-21T04:33:27;100316.03;;;19.41;100.00
6200;BME280;3133;43.214;27.906;2023-05-21T04:35:54;100313.88;;;19.51;100.00
6200;BME280;3133;43.214;27.906;2023-05-21T04:38:22;100286.88;;;19.43;100.00
6200;BME280;3133;43.214;27.906;2023-05-21T04:40:49;100304.81;;;19.56;100.00
6200;BME280;3133;43.214;27.906;2023-05-21T04:43:16;100273.19;;;19.32;100.00
6200;BME280;3133;43.214;27.906;2023-05-21T04:45:49;100263.47;;;19.32;100.00
6200;BME280;3133;43.214;27.906;2023-05-21T04:48:18;100313.94;;;19.71;100.00
6200;BME280;3133;43.214;27.906;2023-05-21T04:50:45;100306.28;;;19.85;100.00
6200;BME280;3133;43.214;27.906;2023-05-21T04:53:12;100317.94;;;19.81;100.00
6200;BME280;3133;43.214;27.906;2023-05-21T04:55:38;100282.72;;;19.79;100.00
6200;BME280;3133;43.214;27.906;2023-05-21T04:58:06;100194.84;;;19.51;100.00
6200;BME280;3133;43.214;27.906;2023-05-21T05:00:35;100243.81;;;19.81;100.00
6200;BME280;3133;43.214;27.906;2023-05-21T05:03:03;100312.56;;;20.44;100.00
6200;BME280;3133;43.214;27.906;2023-05-21T05:05:31;100249.41;;;20.15;100.00
6200;BME280;3133;43.214;27.906;2023-05-21T05:07:58;100319.34;;;20.51;100.00
6200;BME280;3133;43.214;27.906;2023-05-21T05:10:25;100265.81;;;20.03;100.00
6200;BME280;3133;43.214;27.906;2023-05-21T05:12:52;100193.84;;;19.53;100.00
6200;BME280;3133;43.214;27.906;2023-05-21T05:15:19;100201.63;;;19.56;100.00
6200;BME280;3133;43.214;27.906;2023-05-21T05:17:46;100300.69;;;20.13;100.00
6200;BME280;3133;43.214;27.906;2023-05-21T05:20:14;100321.75;;;20.16;100.00
6200;BME280;3133;43.214;27.906;2023-05-21T05:22:43;100330.50;;;20.18;100.00
6200;BME280;3133;43.214;27.906;2023-05-21T05:25:09;100291.31;;;20.06;100.00
6200;BME280;3133;43.214;27.906;2023-05-21T05:27:36;100275.44;;;20.06;100.00
6200;BME280;3133;43.214;27.906;2023-05-21T05:30:04;100306.25;;;20.28;100.00
6200;BME280;3133;43.214;27.906;2023-05-21T05:32:31;100313.19;;;20.31;100.00
6200;BME280;3133;43.214;27.906;2023-05-21T05:34:58;100287.19;;;20.19;100.00
6200;BME280;3133;43.214;27.906;2023-05-21T05:37:25;100297.09;;;20.35;100.00
6200;BME280;3133;43.214;27.906;2023-05-21T05:39:53;100287.78;;;20.27;100.00
6200;BME280;3133;43.214;27.906;2023-05-21T05:42:20;100265.16;;;20.18;100.00
6200;BME280;3133;43.214;27.906;2023-05-21T05:44:47;100272.19;;;20.39;100.00
6200;BME280;3133;43.214;27.906;2023-05-21T05:47:13;100315.50;;;20.79;100.00
6200;BME280;3133;43.214;27.906;2023-05-21T05:49:40;100310.81;;;20.84;100.00
6200;BME280;3133;43.214;27.906;2023-05-21T05:52:07;100310.41;;;20.93;100.00
6200;BME280;3133;43.214;27.906;2023-05-21T05:54:34;100307.97;;;20.88;100.00
6200;BME280;3133;43.214;27.906;2023-05-21T05:57:03;100288.31;;;20.74;100.00
6200;BME280;3133;43.214;27.906;2023-05-21T05:59:29;100303.72;;;20.84;100.00
6200;BME280;3133;43.214;27.906;2023-05-21T06:01:58;100303.03;;;20.81;100.00
6200;BME280;3133;43.214;27.906;2023-05-21T06:04:25;100313.13;;;20.91;100.00
6200;BME280;3133;43.214;27.906;2023-05-21T06:06:54;100301.13;;;21.03;100.00
6200;BME280;3133;43.214;27.906;2023-05-21T06:09:21;100296.34;;;20.91;100.00
6200;BME280;3133;43.214;27.906;2023-05-21T06:11:48;100258.44;;;20.89;100.00
6200;BME280;3133;43.214;27.906;2023-05-21T06:14:17;100248.75;;;20.88;100.00
6200;BME280;3133;43.214;27.906;2023-05-21T06:16:45;100284.22;;;21.05;100.00
6200;BME280;3133;43.214;27.906;2023-05-21T06:19:12;100312.16;;;21.31;100.00
6200;BME280;3133;43.214;27.906;2023-05-21T06:21:39;100311.88;;;21.37;100.00
6200;BME280;3133;43.214;27.906;2023-05-21T06:24:06;100295.31;;;21.32;100.00
6200;BME280;3133;43.214;27.906;2023-05-21T06:26:33;100310.56;;;21.64;100.00
6200;BME280;3133;43.214;27.906;2023-05-21T06:29:00;100307.03;;;21.64;100.00
6200;BME280;3133;43.214;27.906;2023-05-21T06:31:29;100256.13;;;21.56;100.00
6200;BME280;3133;43.214;27.906;2023-05-21T06:33:57;100233.03;;;21.39;100.00
6200;BME280;3133;43.214;27.906;2023-05-21T06:36:25;100305.22;;;21.83;100.00
6200;BME280;3133;43.214;27.906;2023-05-21T06:38:54;100290.44;;;21.77;100.00
6200;BME280;3133;43.214;27.906;2023-05-21T06:41:21;100304.22;;;21.85;100.00
6200;BME280;3133;43.214;27.906;2023-05-21T06:43:48;100299.91;;;21.83;100.00
6200;BME280;3133;43.214;27.906;2023-05-21T06:46:16;100314.84;;;21.85;100.00
6200;BME280;3133;43.214;27.906;2023-05-21T06:48:45;100309.94;;;21.76;100.00
6200;BME280;3133;43.214;27.906;2023-05-21T06:51:12;100285.41;;;21.71;100.00
6200;BME280;3133;43.214;27.906;2023-05-21T06:53:39;100304.13;;;21.87;100.00
6200;BME280;3133;43.214;27.906;2023-05-21T06:56:06;100252.22;;;21.63;99.87
6200;BME280;3133;43.214;27.906;2023-05-21T06:58:33;100301.94;;;21.95;99.62
6200;BME280;3133;43.214;27.906;2023-05-21T07:01:00;100292.59;;;21.88;98.76
6200;BME280;3133;43.214;27.906;2023-05-21T07:03:27;100187.38;;;21.32;99.01
6200;BME280;3133;43.214;27.906;2023-05-21T07:05:56;100210.91;;;21.57;99.82
6200;BME280;3133;43.214;27.906;2023-05-21T07:08:23;100256.34;;;21.87;97.79
6200;BME280;3133;43.214;27.906;2023-05-21T07:10:50;100251.66;;;21.92;94.50
6200;BME280;3133;43.214;27.906;2023-05-21T07:13:17;100132.19;;;21.22;95.46
6200;BME280;3133;43.214;27.906;2023-05-21T07:15:45;100296.91;;;22.25;91.12
6200;BME280;3133;43.214;27.906;2023-05-21T07:18:12;100299.31;;;22.29;92.42
6200;BME280;3133;43.214;27.906;2023-05-21T07:20:39;100192.84;;;21.82;90.39
6200;BME280;3133;43.214;27.906;2023-05-21T07:23:07;100297.25;;;22.51;89.90
6200;BME280;3133;43.214;27.906;2023-05-21T07:25:34;100285.31;;;22.43;87.58
6200;BME280;3133;43.214;27.906;2023-05-21T07:28:01;100177.44;;;22.06;85.76
6200;BME280;3133;43.214;27.906;2023-05-21T07:30:28;100199.44;;;22.25;85.83
6200;BME280;3133;43.214;27.906;2023-05-21T07:32:55;100286.50;;;22.87;85.91
6200;BME280;3133;43.214;27.906;2023-05-21T07:35:22;100286.94;;;23.11;87.21
6200;BME280;3133;43.214;27.906;2023-05-21T07:37:49;100293.25;;;23.41;86.16
6200;BME280;3133;43.214;27.906;2023-05-21T07:40:18;100301.19;;;23.42;82.19
6200;BME280;3133;43.214;27.906;2023-05-21T07:42:45;100173.16;;;22.69;81.93
6200;BME280;3133;43.214;27.906;2023-05-21T07:45:12;100292.22;;;23.28;83.63
6200;BME280;3133;43.214;27.906;2023-05-21T07:47:39;100292.31;;;23.57;84.86
6200;BME280;3133;43.214;27.906;2023-05-21T07:50:06;100280.22;;;24.27;81.72
6200;BME280;3133;43.214;27.906;2023-05-21T07:52:33;100277.97;;;24.35;78.76
6200;BME280;3133;43.214;27.906;2023-05-21T07:55:00;100283.97;;;24.38;79.21
6200;BME280;3133;43.214;27.906;2023-05-21T07:57:31;100290.34;;;24.06;80.18
6200;BME280;3133;43.214;27.906;2023-05-21T07:59:58;100252.19;;;24.06;85.08
6200;BME280;3133;43.214;27.906;2023-05-21T08:02:25;100282.91;;;24.41;88.06
6200;BME280;3133;43.214;27.906;2023-05-21T08:04:52;100294.69;;;24.23;85.71
6200;BME280;3133;43.214;27.906;2023-05-21T08:07:19;100277.25;;;24.02;91.47
6200;BME280;3133;43.214;27.906;2023-05-21T08:09:46;100288.72;;;23.88;93.55
6200;BME280;3133;43.214;27.906;2023-05-21T08:12:14;100295.91;;;24.17;95.58
6200;BME280;3133;43.214;27.906;2023-05-21T08:14:44;100294.13;;;24.02;93.63
6200;BME280;3133;43.214;27.906;2023-05-21T08:17:11;100263.69;;;23.61;98.33
6200;BME280;3133;43.214;27.906;2023-05-21T08:19:38;100299.03;;;23.33;99.28
6200;BME280;3133;43.214;27.906;2023-05-21T08:22:05;100303.69;;;23.28;100.00
6200;BME280;3133;43.214;27.906;2023-05-21T08:24:32;100286.44;;;23.04;100.00
6200;BME280;3133;43.214;27.906;2023-05-21T08:26:59;100285.31;;;23.24;100.00
6200;BME280;3133;43.214;27.906;2023-05-21T08:29:26;100224.53;;;22.69;100.00
6200;BME280;3133;43.214;27.906;2023-05-21T08:31:54;100276.88;;;22.84;100.00
6200;BME280;3133;43.214;27.906;2023-05-21T08:34:21;100255.25;;;22.75;100.00
6200;BME280;3133;43.214;27.906;2023-05-21T08:36:49;100295.59;;;22.99;100.00
6200;BME280;3133;43.214;27.906;2023-05-21T08:39:18;100267.91;;;22.53;100.00
6200;BME280;3133;43.214;27.906;2023-05-21T08:41:46;100305.75;;;22.75;100.00
6200;BME280;3133;43.214;27.906;2023-05-21T08:44:19;100260.28;;;22.47;100.00
6200;BME280;3133;43.214;27.906;2023-05-21T08:46:48;100193.31;;;22.07;100.00
6200;BME280;3133;43.214;27.906;2023-05-21T08:49:22;100311.56;;;22.66;100.00
6200;BME280;3133;43.214;27.906;2023-05-21T08:51:52;100309.38;;;22.57;100.00
6200;BME280;3133;43.214;27.906;2023-05-21T08:54:21;100206.72;;;22.04;100.00
6200;BME280;3133;43.214;27.906;2023-05-21T08:56:49;100322.09;;;22.84;100.00
6200;BME280;3133;43.214;27.906;2023-05-21T08:59:21;100145.03;;;21.82;100.00
6200;BME280;3133;43.214;27.906;2023-05-21T09:01:52;100286.53;;;22.53;100.00
6200;BME280;3133;43.214;27.906;2023-05-21T09:04:24;100284.75;;;22.53;100.00
6200;BME280;3133;43.214;27.906;2023-05-21T09:06:53;100187.22;;;21.88;100.00
6200;BME280;3133;43.214;27.906;2023-05-21T09:09:27;100288.75;;;22.45;100.00
6200;BME280;3133;43.214;27.906;2023-05-21T09:11:58;100338.69;;;22.72;100.00
6200;BME280;3133;43.214;27.906;2023-05-21T09:14:26;100339.72;;;22.87;100.00
6200;BME280;3133;43.214;27.906;2023-05-21T09:16:53;100179.28;;;22.21;100.00
6200;BME280;3133;43.214;27.906;2023-05-21T09:19:23;100348.16;;;23.26;100.00
6200;BME280;3133;43.214;27.906;2023-05-21T09:22:02;100340.41;;;23.39;100.00
6200;BME280;3133;43.214;27.906;2023-05-21T09:24:29;100339.47;;;23.40;99.03
6200;BME280;3133;43.214;27.906;2023-05-21T09:26:57;100306.94;;;23.02;100.00
6200;BME280;3133;43.214;27.906;2023-05-21T09:29:25;100274.91;;;22.88;100.00
6200;BME280;3133;43.214;27.906;2023-05-21T09:31:55;100348.91;;;23.45;100.00
6200;BME280;3133;43.214;27.906;2023-05-21T09:34:24;100286.78;;;23.14;100.00
6200;BME280;3133;43.214;27.906;2023-05-21T09:36:55;100210.25;;;22.55;100.00
6200;BME280;3133;43.214;27.906;2023-05-21T09:39:28;100298.75;;;22.89;100.00
6200;BME280;3133;43.214;27.906;2023-05-21T09:42:26;100351.22;;;23.03;100.00
6200;BME280;3133;43.214;27.906;2023-05-21T09:44:58;100291.84;;;22.53;100.00
6200;BME280;3133;43.214;27.906;2023-05-21T09:48:24;100315.31;;;22.62;100.00
6200;BME280;3133;43.214;27.906;2023-05-21T09:50:37;100335.19;;;22.72;100.00
6200;BME280;3133;43.214;27.906;2023-05-21T09:59:50;100347.03;;;22.99;100.00
6200;BME280;3133;43.214;27.906;2023-05-21T10:02:23;100346.97;;;23.16;100.00
6200;BME280;3133;43.214;27.906;2023-05-21T10:08:13;100354.13;;;23.31;100.00
6200;BME280;3133;43.214;27.906;2023-05-21T10:10:48;100344.56;;;23.12;100.00
6200;BME280;3133;43.214;27.906;2023-05-21T10:20:01;100343.25;;;23.36;100.00
6200;BME280;3133;43.214;27.906;2023-05-21T10:22:35;100349.44;;;23.36;100.00
6200;BME280;3133;43.214;27.906;2023-05-21T10:25:15;100346.06;;;23.00;100.00
6200;BME280;3133;43.214;27.906;2023-05-21T10:31:04;100342.69;;;23.29;100.00
6200;BME280;3133;43.214;27.906;2023-05-21T10:36:56;100351.94;;;23.22;100.00
6200;BME280;3133;43.214;27.906;2023-05-21T10:43:05;100355.53;;;22.73;100.00
6200;BME280;3133;43.214;27.906;2023-05-21T10:49:09;100346.63;;;22.89;100.00
6200;BME280;3133;43.214;27.906;2023-05-21T10:55:23;100361.28;;;22.81;100.00
6200;BME280;3133;43.214;27.906;2023-05-21T11:01:14;100359.25;;;23.19;100.00
6200;BME280;3133;43.214;27.906;2023-05-21T11:03:56;100364.00;;;23.29;100.00
6200;BME280;3133;43.214;27.906;2023-05-21T11:09:45;100360.94;;;23.52;100.00
6200;BME280;3133;43.214;27.906;2023-05-21T11:16:04;100356.03;;;23.76;100.00
6200;BME280;3133;43.214;27.906;2023-05-21T11:19:00;100359.66;;;23.44;100.00
6200;BME280;3133;43.214;27.906;2023-05-21T11:21:32;100349.25;;;23.39;100.00
6200;BME280;3133;43.214;27.906;2023-05-21T11:31:22;100343.69;;;23.11;100.00
6200;BME280;3133;43.214;27.906;2023-05-21T11:34:07;100352.03;;;23.21;100.00
6200;BME280;3133;43.214;27.906;2023-05-21T11:40:23;100358.47;;;23.32;100.00
6200;BME280;3133;43.214;27.906;2023-05-21T11:42:55;100341.66;;;23.16;100.00
6200;BME280;3133;43.214;27.906;2023-05-21T11:48:45;100347.06;;;23.30;100.00
6200;BME280;3133;43.214;27.906;2023-05-21T11:51:19;100348.16;;;23.26;100.00
6200;BME280;3133;43.214;27.906;2023-05-21T12:00:22;100342.38;;;23.03;100.00
6200;BME280;3133;43.214;27.906;2023-05-21T12:02:54;100341.78;;;22.98;100.00
6200;BME280;3133;43.214;27.906;2023-05-21T12:08:50;100344.16;;;22.86;100.00
6200;BME280;3133;43.214;27.906;2023-05-21T12:11:22;100342.44;;;22.85;100.00
6200;BME280;3133;43.214;27.906;2023-05-21T12:17:12;100338.06;;;22.84;100.00
6200;BME280;3133;43.214;27.906;2023-05-21T12:19:41;100326.88;;;22.78;100.00
6200;BME280;3133;43.214;27.906;2023-05-21T12:22:39;100323.91;;;22.84;100.00
6200;BME280;3133;43.214;27.906;2023-05-21T12:25:08;100330.78;;;22.88;100.00
6200;BME280;3133;43.214;27.906;2023-05-21T12:33:24;100324.38;;;22.75;100.00
6200;BME280;3133;43.214;27.906;2023-05-21T12:45:57;100322.69;;;22.74;100.00
6200;BME280;3133;43.214;27.906;2023-05-21T12:51:46;100308.81;;;22.84;100.00
6200;BME280;3133;43.214;27.906;2023-05-21T12:57:36;100313.59;;;22.78;100.00
6200;BME280;3133;43.214;27.906;2023-05-21T13:03:26;100305.84;;;23.06;100.00
6200;BME280;3133;43.214;27.906;2023-05-21T13:09:15;100315.31;;;23.27;100.00
6200;BME280;3133;43.214;27.906;2023-05-21T13:15:05;100302.34;;;23.21;100.00
6200;BME280;3133;43.214;27.906;2023-05-21T13:20:55;100323.16;;;22.98;96.28
6200;BME280;3133;43.214;27.906;2023-05-21T13:26:46;100299.97;;;22.84;90.91
6200;BME280;3133;43.214;27.906;2023-05-21T13:29:17;100307.25;;;22.96;94.28
6200;BME280;3133;43.214;27.906;2023-05-21T13:31:44;100312.22;;;23.19;91.33
6200;BME280;3133;43.214;27.906;2023-05-21T13:37:34;100307.38;;;23.26;89.13
6200;BME280;3133;43.214;27.906;2023-05-21T13:40:02;100307.53;;;23.07;90.17
6200;BME280;3133;43.214;27.906;2023-05-21T13:42:46;100312.53;;;23.13;90.58
6200;BME280;3133;43.214;27.906;2023-05-21T13:45:33;100304.78;;;23.09;92.82
6200;BME280;3133;43.214;27.906;2023-05-21T13:48:19;100308.13;;;22.97;93.53
6200;BME280;3133;43.214;27.906;2023-05-21T14:07:04;100266.69;;;22.93;84.44
6200;BME280;3133;43.214;27.906;2023-05-21T14:12:58;100300.53;;;23.06;87.21
6200;BME280;3133;43.214;27.906;2023-05-21T14:18:46;100290.06;;;22.70;83.62
6200;BME280;3133;43.214;27.906;2023-05-21T14:24:36;100271.00;;;22.62;84.72
6200;BME280;3133;43.214;27.906;2023-05-21T14:27:03;100285.75;;;22.68;86.29
6200;BME280;3133;43.214;27.906;2023-05-21T14:32:52;100274.19;;;22.69;88.45
6200;BME280;3133;43.214;27.906;2023-05-21T14:35:24;100288.03;;;22.58;90.94
6200;BME280;3133;43.214;27.906;2023-05-21T14:41:15;100281.03;;;22.23;89.94
6200;BME280;3133;43.214;27.906;2023-05-21T14:46:51;100272.13;;;22.07;96.47
6200;BME280;3133;43.214;27.906;2023-05-21T14:56:02;100259.63;;;22.09;99.65
6200;BME280;3133;43.214;27.906;2023-05-21T15:05:13;100255.19;;;22.09;99.49
6200;BME280;3133;43.214;27.906;2023-05-21T15:11:07;100258.53;;;22.13;100.00
6200;BME280;3133;43.214;27.906;2023-05-21T15:16:58;100254.09;;;21.96;100.00
6200;BME280;3133;43.214;27.906;2023-05-21T15:25:26;100247.59;;;21.85;100.00
6200;BME280;3133;43.214;27.906;2023-05-21T15:27:58;100273.91;;;21.89;100.00
6200;BME280;3133;43.214;27.906;2023-05-21T15:33:47;100255.56;;;21.85;100.00
6200;BME280;3133;43.214;27.906;2023-05-21T15:39:35;100248.22;;;21.90;100.00
6200;BME280;3133;43.214;27.906;2023-05-21T15:42:04;100259.72;;;21.90;100.00
6200;BME280;3133;43.214;27.906;2023-05-21T15:54:38;100254.47;;;21.89;100.00
6200;BME280;3133;43.214;27.906;2023-05-21T15:57:06;100266.53;;;21.77;100.00
6200;BME280;3133;43.214;27.906;2023-05-21T16:02:55;100259.03;;;21.68;100.00
6200;BME280;3133;43.214;27.906;2023-05-21T16:05:21;100266.00;;;21.71;100.00
6200;BME280;3133;43.214;27.906;2023-05-21T16:11:10;100255.03;;;21.60;100.00
6200;BME280;3133;43.214;27.906;2023-05-21T16:13:43;100247.53;;;21.51;100.00
6200;BME280;3133;43.214;27.906;2023-05-21T16:19:32;100249.63;;;21.44;100.00
6200;BME280;3133;43.214;27.906;2023-05-21T16:25:21;100253.34;;;21.40;100.00
6200;BME280;3133;43.214;27.906;2023-05-21T16:27:47;100257.41;;;21.30;100.00
6200;BME280;3133;43.214;27.906;2023-05-21T16:30:40;100252.59;;;21.19;100.00
6200;BME280;3133;43.214;27.906;2023-05-21T16:39:37;100249.88;;;21.02;100.00
6200;BME280;3133;43.214;27.906;2023-05-21T16:42:04;100243.03;;;20.97;100.00